sensor_id;sensor_type;location;lat;lon;timestamp;P1;durP1;ratioP1;P2;durP2;ratioP2
73434;SDS011;61648;52.094;5.054;2022-11-11T00:00:03;7.82;;;2.53;;
73434;SDS011;61648;52.094;5.054;2022-11-11T00:02:29;9.48;;;2.72;;
73434;SDS011;61648;52.094;5.054;2022-11-11T00:04:55;8.27;;;2.88;;
73434;SDS011;61648;52.094;5.054;2022-11-11T00:07:21;6.65;;;2.30;;
73434;SDS011;61648;52.094;5.054;2022-11-11T00:09:47;6.47;;;2.65;;
73434;SDS011;61648;52.094;5.054;2022-11-11T00:12:13;8.70;;;2.58;;
73434;SDS011;61648;52.094;5.054;2022-11-11T00:14:39;7.15;;;2.42;;
73434;SDS011;61648;52.094;5.054;2022-11-11T00:17:05;7.40;;;2.55;;
73434;SDS011;61648;52.094;5.054;2022-11-11T00:19:50;7.47;;;2.60;;
73434;SDS011;61648;52.094;5.054;2022-11-11T00:22:34;9.35;;;2.67;;
73434;SDS011;61648;52.094;5.054;2022-11-11T00:25:19;6.95;;;2.47;;
73434;SDS011;61648;52.094;5.054;2022-11-11T00:27:46;7.88;;;2.85;;
73434;SDS011;61648;52.094;5.054;2022-11-11T00:30:12;6.10;;;2.42;;
73434;SDS011;61648;52.094;5.054;2022-11-11T00:32:38;10.23;;;2.65;;
73434;SDS011;61648;52.094;5.054;2022-11-11T00:35:04;6.20;;;2.53;;
73434;SDS011;61648;52.094;5.054;2022-11-11T00:37:48;9.25;;;3.10;;
73434;SDS011;61648;52.094;5.054;2022-11-11T00:40:14;7.25;;;2.50;;
73434;SDS011;61648;52.094;5.054;2022-11-11T00:42:41;7.28;;;2.33;;
73434;SDS011;61648;52.094;5.054;2022-11-11T00:45:07;6.82;;;2.50;;
73434;SDS011;61648;52.094;5.054;2022-11-11T00:47:33;5.53;;;2.33;;
73434;SDS011;61648;52.094;5.054;2022-11-11T00:50:19;5.82;;;2.30;;
73434;SDS011;61648;52.094;5.054;2022-11-11T00:53:07;8.15;;;2.88;;
73434;SDS011;61648;52.094;5.054;2022-11-11T00:55:33;5.60;;;2.25;;
73434;SDS011;61648;52.094;5.054;2022-11-11T00:57:59;7.93;;;2.58;;
73434;SDS011;61648;52.094;5.054;2022-11-11T01:00:25;5.25;;;2.40;;
73434;SDS011;61648;52.094;5.054;2022-11-11T01:02:51;6.80;;;2.70;;
73434;SDS011;61648;52.094;5.054;2022-11-11T01:05:17;7.50;;;2.50;;
73434;SDS011;61648;52.094;5.054;2022-11-11T01:07:43;5.60;;;2.58;;
73434;SDS011;61648;52.094;5.054;2022-11-11T01:10:09;8.40;;;3.08;;
73434;SDS011;61648;52.094;5.054;2022-11-11T01:12:35;7.57;;;2.58;;
73434;SDS011;61648;52.094;5.054;2022-11-11T01:15:01;8.30;;;3.00;;
73434;SDS011;61648;52.094;5.054;2022-11-11T01:17:27;7.63;;;2.65;;
73434;SDS011;61648;52.094;5.054;2022-11-11T01:19:53;8.65;;;2.75;;
73434;SDS011;61648;52.094;5.054;2022-11-11T01:22:19;8.10;;;2.50;;
73434;SDS011;61648;52.094;5.054;2022-11-11T01:24:45;9.32;;;3.13;;
73434;SDS011;61648;52.094;5.054;2022-11-11T01:27:11;8.65;;;2.90;;
73434;SDS011;61648;52.094;5.054;2022-11-11T01:29:37;7.57;;;2.78;;
73434;SDS011;61648;52.094;5.054;2022-11-11T01:32:03;8.63;;;2.90;;
73434;SDS011;61648;52.094;5.054;2022-11-11T01:34:29;6.97;;;3.05;;
73434;SDS011;61648;52.094;5.054;2022-11-11T01:36:55;8.00;;;2.58;;
73434;SDS011;61648;52.094;5.054;2022-11-11T01:39:20;9.20;;;2.85;;
73434;SDS011;61648;52.094;5.054;2022-11-11T01:41:46;7.65;;;2.92;;
73434;SDS011;61648;52.094;5.054;2022-11-11T01:44:16;8.32;;;2.90;;
73434;SDS011;61648;52.094;5.054;2022-11-11T01:46:48;6.97;;;2.95;;
73434;SDS011;61648;52.094;5.054;2022-11-11T01:54:11;7.38;;;2.72;;
73434;SDS011;61648;52.094;5.054;2022-11-11T01:56:39;8.73;;;3.17;;
73434;SDS011;61648;52.094;5.054;2022-11-11T01:59:06;8.88;;;2.80;;
73434;SDS011;61648;52.094;5.054;2022-11-11T02:01:33;8.98;;;3.10;;
73434;SDS011;61648;52.094;5.054;2022-11-11T02:03:59;7.90;;;2.80;;
73434;SDS011;61648;52.094;5.054;2022-11-11T02:06:44;8.70;;;3.03;;
73434;SDS011;61648;52.094;5.054;2022-11-11T02:09:10;6.85;;;2.85;;
73434;SDS011;61648;52.094;5.054;2022-11-11T02:11:36;10.05;;;3.20;;
73434;SDS011;61648;52.094;5.054;2022-11-11T02:14:22;9.35;;;3.35;;
73434;SDS011;61648;52.094;5.054;2022-11-11T02:17:00;7.13;;;3.22;;
73434;SDS011;61648;52.094;5.054;2022-11-11T02:19:30;9.20;;;3.00;;
73434;SDS011;61648;52.094;5.054;2022-11-11T02:21:59;7.72;;;3.08;;
73434;SDS011;61648;52.094;5.054;2022-11-11T02:24:25;7.30;;;2.88;;
73434;SDS011;61648;52.094;5.054;2022-11-11T02:26:53;7.90;;;2.70;;
73434;SDS011;61648;52.094;5.054;2022-11-11T02:29:20;9.50;;;2.90;;
73434;SDS011;61648;52.094;5.054;2022-11-11T02:31:46;8.75;;;3.22;;
73434;SDS011;61648;52.094;5.054;2022-11-11T02:34:12;8.50;;;3.15;;
73434;SDS011;61648;52.094;5.054;2022-11-11T02:36:38;9.15;;;3.00;;
73434;SDS011;61648;52.094;5.054;2022-11-11T02:39:05;7.97;;;2.90;;
73434;SDS011;61648;52.094;5.054;2022-11-11T02:41:31;7.82;;;3.13;;
73434;SDS011;61648;52.094;5.054;2022-11-11T02:44:16;8.20;;;3.30;;
73434;SDS011;61648;52.094;5.054;2022-11-11T02:46:42;8.80;;;2.90;;
73434;SDS011;61648;52.094;5.054;2022-11-11T02:49:08;8.75;;;2.75;;
73434;SDS011;61648;52.094;5.054;2022-11-11T02:51:34;8.55;;;2.92;;
73434;SDS011;61648;52.094;5.054;2022-11-11T02:54:00;7.55;;;3.00;;
73434;SDS011;61648;52.094;5.054;2022-11-11T02:56:26;9.88;;;3.40;;
73434;SDS011;61648;52.094;5.054;2022-11-11T02:59:11;7.63;;;2.83;;
73434;SDS011;61648;52.094;5.054;2022-11-11T03:01:37;8.18;;;3.00;;
73434;SDS011;61648;52.094;5.054;2022-11-11T03:04:03;10.60;;;3.30;;
73434;SDS011;61648;52.094;5.054;2022-11-11T03:06:29;7.15;;;3.10;;
73434;SDS011;61648;52.094;5.054;2022-11-11T03:08:55;7.18;;;3.30;;
73434;SDS011;61648;52.094;5.054;2022-11-11T03:11:21;9.05;;;2.95;;
73434;SDS011;61648;52.094;5.054;2022-11-11T03:13:54;8.75;;;3.38;;
73434;SDS011;61648;52.094;5.054;2022-11-11T03:16:20;8.98;;;3.30;;
73434;SDS011;61648;52.094;5.054;2022-11-11T03:19:04;8.68;;;3.10;;
73434;SDS011;61648;52.094;5.054;2022-11-11T03:21:30;7.15;;;3.00;;
73434;SDS011;61648;52.094;5.054;2022-11-11T03:23:56;8.70;;;3.30;;
73434;SDS011;61648;52.094;5.054;2022-11-11T03:26:22;7.88;;;3.22;;
73434;SDS011;61648;52.094;5.054;2022-11-11T03:28:48;8.98;;;3.22;;
73434;SDS011;61648;52.094;5.054;2022-11-11T03:31:14;7.15;;;2.97;;
73434;SDS011;61648;52.094;5.054;2022-11-11T03:33:40;9.63;;;3.17;;
73434;SDS011;61648;52.094;5.054;2022-11-11T03:36:07;10.43;;;3.40;;
73434;SDS011;61648;52.094;5.054;2022-11-11T03:38:33;8.43;;;3.40;;
73434;SDS011;61648;52.094;5.054;2022-11-11T03:40:59;8.38;;;3.20;;
73434;SDS011;61648;52.094;5.054;2022-11-11T03:43:29;7.90;;;3.20;;
73434;SDS011;61648;52.094;5.054;2022-11-11T03:45:56;6.25;;;2.78;;
73434;SDS011;61648;52.094;5.054;2022-11-11T03:48:23;9.70;;;3.47;;
73434;SDS011;61648;52.094;5.054;2022-11-11T03:50:49;8.70;;;3.25;;
73434;SDS011;61648;52.094;5.054;2022-11-11T03:53:16;9.25;;;3.25;;
73434;SDS011;61648;52.094;5.054;2022-11-11T03:55:44;7.95;;;3.20;;
73434;SDS011;61648;52.094;5.054;2022-11-11T03:58:10;9.48;;;3.28;;
73434;SDS011;61648;52.094;5.054;2022-11-11T04:00:36;8.32;;;3.35;;
73434;SDS011;61648;52.094;5.054;2022-11-11T04:03:06;9.48;;;3.42;;
73434;SDS011;61648;52.094;5.054;2022-11-11T04:05:51;10.35;;;4.10;;
73434;SDS011;61648;52.094;5.054;2022-11-11T04:08:36;9.43;;;3.35;;
73434;SDS011;61648;52.094;5.054;2022-11-11T04:11:25;7.50;;;3.25;;
73434;SDS011;61648;52.094;5.054;2022-11-11T04:13:51;8.50;;;3.13;;
73434;SDS011;61648;52.094;5.054;2022-11-11T04:16:37;8.68;;;3.17;;
73434;SDS011;61648;52.094;5.054;2022-11-11T04:19:03;8.52;;;3.50;;
73434;SDS011;61648;52.094;5.054;2022-11-11T04:21:48;8.98;;;3.45;;
73434;SDS011;61648;52.094;5.054;2022-11-11T04:24:15;7.47;;;2.95;;
73434;SDS011;61648;52.094;5.054;2022-11-11T04:27:01;7.68;;;3.08;;
73434;SDS011;61648;52.094;5.054;2022-11-11T04:29:28;7.32;;;3.30;;
73434;SDS011;61648;52.094;5.054;2022-11-11T04:32:07;8.23;;;3.50;;
73434;SDS011;61648;52.094;5.054;2022-11-11T04:34:52;9.93;;;3.58;;
73434;SDS011;61648;52.094;5.054;2022-11-11T04:37:19;10.13;;;3.58;;
73434;SDS011;61648;52.094;5.054;2022-11-11T04:39:45;8.13;;;3.65;;
73434;SDS011;61648;52.094;5.054;2022-11-11T04:42:30;9.73;;;3.60;;
73434;SDS011;61648;52.094;5.054;2022-11-11T04:44:59;9.20;;;3.38;;
73434;SDS011;61648;52.094;5.054;2022-11-11T04:47:57;8.75;;;3.30;;
73434;SDS011;61648;52.094;5.054;2022-11-11T04:50:25;10.18;;;3.90;;
73434;SDS011;61648;52.094;5.054;2022-11-11T04:52:51;6.93;;;3.15;;
73434;SDS011;61648;52.094;5.054;2022-11-11T04:55:17;8.23;;;3.40;;
73434;SDS011;61648;52.094;5.054;2022-11-11T04:58:02;6.82;;;3.15;;
73434;SDS011;61648;52.094;5.054;2022-11-11T05:00:28;8.38;;;3.63;;
73434;SDS011;61648;52.094;5.054;2022-11-11T05:02:55;9.00;;;3.63;;
73434;SDS011;61648;52.094;5.054;2022-11-11T05:05:39;8.02;;;3.35;;
73434;SDS011;61648;52.094;5.054;2022-11-11T05:08:24;8.00;;;3.25;;
73434;SDS011;61648;52.094;5.054;2022-11-11T05:11:09;8.73;;;3.40;;
73434;SDS011;61648;52.094;5.054;2022-11-11T05:13:35;8.23;;;3.20;;
73434;SDS011;61648;52.094;5.054;2022-11-11T05:16:20;9.45;;;3.08;;
73434;SDS011;61648;52.094;5.054;2022-11-11T05:19:07;9.35;;;3.47;;
73434;SDS011;61648;52.094;5.054;2022-11-11T05:21:53;7.57;;;3.50;;
73434;SDS011;61648;52.094;5.054;2022-11-11T05:24:20;8.68;;;3.20;;
73434;SDS011;61648;52.094;5.054;2022-11-11T05:27:05;9.77;;;3.67;;
73434;SDS011;61648;52.094;5.054;2022-11-11T05:29:31;8.10;;;3.45;;
73434;SDS011;61648;52.094;5.054;2022-11-11T05:31:57;8.38;;;3.53;;
73434;SDS011;61648;52.094;5.054;2022-11-11T05:34:23;9.90;;;3.42;;
73434;SDS011;61648;52.094;5.054;2022-11-11T05:36:49;6.82;;;3.00;;
73434;SDS011;61648;52.094;5.054;2022-11-11T05:39:15;7.35;;;3.22;;
73434;SDS011;61648;52.094;5.054;2022-11-11T05:41:41;6.28;;;2.80;;
73434;SDS011;61648;52.094;5.054;2022-11-11T05:44:07;8.98;;;3.28;;
73434;SDS011;61648;52.094;5.054;2022-11-11T05:46:33;9.95;;;3.38;;
73434;SDS011;61648;52.094;5.054;2022-11-11T05:48:59;8.68;;;3.38;;
73434;SDS011;61648;52.094;5.054;2022-11-11T05:51:38;6.65;;;3.30;;
73434;SDS011;61648;52.094;5.054;2022-11-11T05:54:04;8.10;;;3.20;;
73434;SDS011;61648;52.094;5.054;2022-11-11T05:56:30;7.22;;;3.17;;
73434;SDS011;61648;52.094;5.054;2022-11-11T05:58:56;8.63;;;3.55;;
73434;SDS011;61648;52.094;5.054;2022-11-11T06:01:22;9.23;;;3.50;;
73434;SDS011;61648;52.094;5.054;2022-11-11T06:03:48;9.48;;;3.03;;
73434;SDS011;61648;52.094;5.054;2022-11-11T06:06:14;7.43;;;3.20;;
73434;SDS011;61648;52.094;5.054;2022-11-11T06:08:40;7.15;;;3.35;;
73434;SDS011;61648;52.094;5.054;2022-11-11T06:11:07;8.60;;;3.50;;
73434;SDS011;61648;52.094;5.054;2022-11-11T06:13:33;9.95;;;3.45;;
73434;SDS011;61648;52.094;5.054;2022-11-11T06:15:59;9.15;;;3.05;;
73434;SDS011;61648;52.094;5.054;2022-11-11T06:18:25;8.57;;;3.45;;
73434;SDS011;61648;52.094;5.054;2022-11-11T06:20:58;7.25;;;3.28;;
73434;SDS011;61648;52.094;5.054;2022-11-11T06:23:24;12.55;;;3.40;;
73434;SDS011;61648;52.094;5.054;2022-11-11T06:25:50;9.63;;;3.67;;
73434;SDS011;61648;52.094;5.054;2022-11-11T06:28:36;7.97;;;3.13;;
73434;SDS011;61648;52.094;5.054;2022-11-11T06:31:03;8.85;;;3.55;;
73434;SDS011;61648;52.094;5.054;2022-11-11T06:33:31;7.90;;;3.30;;
73434;SDS011;61648;52.094;5.054;2022-11-11T06:35:57;8.45;;;3.15;;
73434;SDS011;61648;52.094;5.054;2022-11-11T06:38:23;8.45;;;3.33;;
73434;SDS011;61648;52.094;5.054;2022-11-11T06:40:49;8.85;;;3.30;;
73434;SDS011;61648;52.094;5.054;2022-11-11T06:43:15;6.82;;;2.88;;
73434;SDS011;61648;52.094;5.054;2022-11-11T06:45:41;7.57;;;3.15;;
73434;SDS011;61648;52.094;5.054;2022-11-11T06:48:06;6.45;;;3.08;;
73434;SDS011;61648;52.094;5.054;2022-11-11T06:50:33;7.40;;;3.28;;
73434;SDS011;61648;52.094;5.054;2022-11-11T06:53:03;9.40;;;3.50;;
73434;SDS011;61648;52.094;5.054;2022-11-11T06:55:29;10.63;;;3.15;;
73434;SDS011;61648;52.094;5.054;2022-11-11T06:58:02;7.53;;;3.30;;
73434;SDS011;61648;52.094;5.054;2022-11-11T07:00:28;9.48;;;3.38;;
73434;SDS011;61648;52.094;5.054;2022-11-11T07:02:55;8.85;;;3.25;;
73434;SDS011;61648;52.094;5.054;2022-11-11T07:05:21;10.57;;;3.33;;
73434;SDS011;61648;52.094;5.054;2022-11-11T07:07:47;9.77;;;3.15;;
73434;SDS011;61648;52.094;5.054;2022-11-11T07:10:13;11.98;;;3.90;;
73434;SDS011;61648;52.094;5.054;2022-11-11T07:12:40;8.63;;;3.20;;
73434;SDS011;61648;52.094;5.054;2022-11-11T07:15:06;7.28;;;3.28;;
73434;SDS011;61648;52.094;5.054;2022-11-11T07:17:32;9.40;;;3.38;;
73434;SDS011;61648;52.094;5.054;2022-11-11T07:19:58;8.98;;;3.92;;
73434;SDS011;61648;52.094;5.054;2022-11-11T07:22:24;10.70;;;3.28;;
73434;SDS011;61648;52.094;5.054;2022-11-11T07:24:50;9.32;;;3.45;;
73434;SDS011;61648;52.094;5.054;2022-11-11T07:27:16;9.88;;;3.53;;
73434;SDS011;61648;52.094;5.054;2022-11-11T07:29:42;9.73;;;3.72;;
73434;SDS011;61648;52.094;5.054;2022-11-11T07:32:08;8.05;;;3.25;;
73434;SDS011;61648;52.094;5.054;2022-11-11T07:34:34;8.57;;;3.58;;
73434;SDS011;61648;52.094;5.054;2022-11-11T07:37:00;8.70;;;3.28;;
73434;SDS011;61648;52.094;5.054;2022-11-11T07:39:26;7.82;;;3.42;;
73434;SDS011;61648;52.094;5.054;2022-11-11T07:41:52;8.75;;;3.13;;
73434;SDS011;61648;52.094;5.054;2022-11-11T07:44:18;9.75;;;3.50;;
73434;SDS011;61648;52.094;5.054;2022-11-11T07:46:44;7.70;;;3.20;;
73434;SDS011;61648;52.094;5.054;2022-11-11T07:49:10;8.70;;;3.65;;
73434;SDS011;61648;52.094;5.054;2022-11-11T07:51:36;8.88;;;3.38;;
73434;SDS011;61648;52.094;5.054;2022-11-11T07:54:02;8.43;;;3.28;;
73434;SDS011;61648;52.094;5.054;2022-11-11T07:56:28;10.38;;;3.42;;
73434;SDS011;61648;52.094;5.054;2022-11-11T07:58:54;9.55;;;3.63;;
73434;SDS011;61648;52.094;5.054;2022-11-11T08:01:20;8.07;;;3.42;;
73434;SDS011;61648;52.094;5.054;2022-11-11T08:03:46;7.63;;;3.17;;
73434;SDS011;61648;52.094;5.054;2022-11-11T08:06:16;7.30;;;3.10;;
73434;SDS011;61648;52.094;5.054;2022-11-11T08:08:42;9.07;;;3.13;;
73434;SDS011;61648;52.094;5.054;2022-11-11T08:11:08;6.20;;;3.10;;
73434;SDS011;61648;52.094;5.054;2022-11-11T08:13:34;8.23;;;3.20;;
73434;SDS011;61648;52.094;5.054;2022-11-11T08:16:06;8.23;;;3.08;;
73434;SDS011;61648;52.094;5.054;2022-11-11T08:18:32;8.45;;;3.47;;
73434;SDS011;61648;52.094;5.054;2022-11-11T08:20:59;6.53;;;3.10;;
73434;SDS011;61648;52.094;5.054;2022-11-11T08:23:25;8.50;;;3.10;;
73434;SDS011;61648;52.094;5.054;2022-11-11T08:25:57;6.90;;;3.17;;
73434;SDS011;61648;52.094;5.054;2022-11-11T08:28:24;8.52;;;3.65;;
73434;SDS011;61648;52.094;5.054;2022-11-11T08:30:50;6.45;;;3.03;;
73434;SDS011;61648;52.094;5.054;2022-11-11T08:33:16;7.65;;;3.33;;
73434;SDS011;61648;52.094;5.054;2022-11-11T08:35:42;7.40;;;3.00;;
73434;SDS011;61648;52.094;5.054;2022-11-11T08:38:08;9.90;;;3.20;;
73434;SDS011;61648;52.094;5.054;2022-11-11T08:40:35;7.97;;;3.10;;
73434;SDS011;61648;52.094;5.054;2022-11-11T08:43:01;9.05;;;3.45;;
73434;SDS011;61648;52.094;5.054;2022-11-11T08:45:27;7.95;;;2.95;;
73434;SDS011;61648;52.094;5.054;2022-11-11T08:47:53;8.05;;;3.50;;
73434;SDS011;61648;52.094;5.054;2022-11-11T08:50:19;7.60;;;3.33;;
73434;SDS011;61648;52.094;5.054;2022-11-11T08:52:48;8.43;;;3.30;;
73434;SDS011;61648;52.094;5.054;2022-11-11T08:55:14;8.35;;;3.10;;
73434;SDS011;61648;52.094;5.054;2022-11-11T08:57:41;7.80;;;3.22;;
73434;SDS011;61648;52.094;5.054;2022-11-11T09:00:08;8.57;;;3.38;;
73434;SDS011;61648;52.094;5.054;2022-11-11T09:02:34;8.38;;;3.50;;
73434;SDS011;61648;52.094;5.054;2022-11-11T09:05:00;11.20;;;3.97;;
73434;SDS011;61648;52.094;5.054;2022-11-11T09:07:26;10.77;;;3.70;;
73434;SDS011;61648;52.094;5.054;2022-11-11T09:09:52;7.68;;;3.45;;
73434;SDS011;61648;52.094;5.054;2022-11-11T09:12:18;6.63;;;3.33;;
73434;SDS011;61648;52.094;5.054;2022-11-11T09:14:44;10.55;;;3.47;;
73434;SDS011;61648;52.094;5.054;2022-11-11T09:17:10;9.82;;;3.75;;
73434;SDS011;61648;52.094;5.054;2022-11-11T09:19:36;10.88;;;3.60;;
73434;SDS011;61648;52.094;5.054;2022-11-11T09:22:02;9.73;;;3.55;;
73434;SDS011;61648;52.094;5.054;2022-11-11T09:24:29;8.77;;;3.72;;
73434;SDS011;61648;52.094;5.054;2022-11-11T09:26:55;9.98;;;3.80;;
73434;SDS011;61648;52.094;5.054;2022-11-11T09:29:21;8.48;;;3.55;;
73434;SDS011;61648;52.094;5.054;2022-11-11T09:31:47;11.50;;;3.90;;
73434;SDS011;61648;52.094;5.054;2022-11-11T09:34:13;10.30;;;3.75;;
73434;SDS011;61648;52.094;5.054;2022-11-11T09:36:39;8.65;;;3.40;;
73434;SDS011;61648;52.094;5.054;2022-11-11T09:39:05;9.23;;;3.97;;
73434;SDS011;61648;52.094;5.054;2022-11-11T09:51:27;10.13;;;3.72;;
73434;SDS011;61648;52.094;5.054;2022-11-11T09:54:02;9.45;;;3.70;;
73434;SDS011;61648;52.094;5.054;2022-11-11T09:56:29;8.60;;;3.92;;
73434;SDS011;61648;52.094;5.054;2022-11-11T09:59:05;9.23;;;3.80;;
73434;SDS011;61648;52.094;5.054;2022-11-11T10:01:36;8.07;;;3.70;;
73434;SDS011;61648;52.094;5.054;2022-11-11T10:06:41;10.18;;;4.10;;
73434;SDS011;61648;52.094;5.054;2022-11-11T10:09:22;10.63;;;4.60;;
73434;SDS011;61648;52.094;5.054;2022-11-11T10:14:15;9.80;;;4.07;;
73434;SDS011;61648;52.094;5.054;2022-11-11T10:22:08;11.15;;;4.00;;
73434;SDS011;61648;52.094;5.054;2022-11-11T10:24:38;10.60;;;4.00;;
73434;SDS011;61648;52.094;5.054;2022-11-11T10:27:15;11.75;;;4.68;;
73434;SDS011;61648;52.094;5.054;2022-11-11T10:29:42;11.63;;;4.75;;
73434;SDS011;61648;52.094;5.054;2022-11-11T10:32:11;10.77;;;4.38;;
73434;SDS011;61648;52.094;5.054;2022-11-11T10:34:38;10.82;;;4.90;;
73434;SDS011;61648;52.094;5.054;2022-11-11T10:37:13;10.52;;;4.50;;
73434;SDS011;61648;52.094;5.054;2022-11-11T10:42:24;9.07;;;3.92;;
73434;SDS011;61648;52.094;5.054;2022-11-11T10:44:50;12.05;;;4.43;;
73434;SDS011;61648;52.094;5.054;2022-11-11T10:50:06;11.15;;;4.75;;
73434;SDS011;61648;52.094;5.054;2022-11-11T10:52:35;11.48;;;4.47;;
73434;SDS011;61648;52.094;5.054;2022-11-11T10:55:08;10.95;;;4.75;;
73434;SDS011;61648;52.094;5.054;2022-11-11T11:00:03;9.75;;;4.43;;
73434;SDS011;61648;52.094;5.054;2022-11-11T11:02:33;10.45;;;4.18;;
73434;SDS011;61648;52.094;5.054;2022-11-11T11:07:55;10.73;;;4.95;;
73434;SDS011;61648;52.094;5.054;2022-11-11T11:10:32;10.10;;;4.35;;
73434;SDS011;61648;52.094;5.054;2022-11-11T11:15:29;11.85;;;5.20;;
73434;SDS011;61648;52.094;5.054;2022-11-11T11:18:03;12.57;;;5.10;;
73434;SDS011;61648;52.094;5.054;2022-11-11T11:20:30;12.32;;;4.95;;
73434;SDS011;61648;52.094;5.054;2022-11-11T11:22:56;12.18;;;5.03;;
73434;SDS011;61648;52.094;5.054;2022-11-11T11:25:27;13.13;;;5.70;;
73434;SDS011;61648;52.094;5.054;2022-11-11T11:33:18;12.32;;;5.10;;
73434;SDS011;61648;52.094;5.054;2022-11-11T11:35:44;10.63;;;4.63;;
73434;SDS011;61648;52.094;5.054;2022-11-11T11:38:11;13.70;;;5.63;;
73434;SDS011;61648;52.094;5.054;2022-11-11T11:43:31;12.73;;;5.43;;
73434;SDS011;61648;52.094;5.054;2022-11-11T11:45:56;11.80;;;5.22;;
73434;SDS011;61648;52.094;5.054;2022-11-11T11:51:08;13.20;;;6.00;;
73434;SDS011;61648;52.094;5.054;2022-11-11T12:01:16;11.20;;;5.30;;
73434;SDS011;61648;52.094;5.054;2022-11-11T12:06:36;12.95;;;5.50;;
73434;SDS011;61648;52.094;5.054;2022-11-11T12:11:37;12.98;;;5.80;;
73434;SDS011;61648;52.094;5.054;2022-11-11T12:16:41;12.82;;;5.45;;
73434;SDS011;61648;52.094;5.054;2022-11-11T12:21:55;12.05;;;5.40;;
73434;SDS011;61648;52.094;5.054;2022-11-11T12:35:25;12.68;;;5.22;;
73434;SDS011;61648;52.094;5.054;2022-11-11T12:38:08;11.60;;;5.07;;
73434;SDS011;61648;52.094;5.054;2022-11-11T12:43:09;13.82;;;6.00;;
73434;SDS011;61648;52.094;5.054;2022-11-11T12:45:39;12.65;;;5.15;;
73434;SDS011;61648;52.094;5.054;2022-11-11T12:50:59;11.82;;;5.15;;
73434;SDS011;61648;52.094;5.054;2022-11-11T12:53:36;10.80;;;5.50;;
73434;SDS011;61648;52.094;5.054;2022-11-11T13:03:58;12.18;;;4.82;;
73434;SDS011;61648;52.094;5.054;2022-11-11T13:11:34;10.60;;;4.68;;
73434;SDS011;61648;52.094;5.054;2022-11-11T13:16:29;13.10;;;5.18;;
73434;SDS011;61648;52.094;5.054;2022-11-11T13:19:02;11.60;;;4.70;;
73434;SDS011;61648;52.094;5.054;2022-11-11T13:24:35;12.10;;;5.03;;
73434;SDS011;61648;52.094;5.054;2022-11-11T13:27:15;11.30;;;4.78;;
73434;SDS011;61648;52.094;5.054;2022-11-11T13:32:11;10.77;;;4.80;;
73434;SDS011;61648;52.094;5.054;2022-11-11T13:34:38;11.55;;;4.60;;
73434;SDS011;61648;52.094;5.054;2022-11-11T13:37:05;9.90;;;4.30;;
73434;SDS011;61648;52.094;5.054;2022-11-11T13:39:45;11.82;;;4.50;;
73434;SDS011;61648;52.094;5.054;2022-11-11T13:42:12;11.75;;;4.70;;
73434;SDS011;61648;52.094;5.054;2022-11-11T13:44:46;12.38;;;4.90;;
73434;SDS011;61648;52.094;5.054;2022-11-11T13:47:17;12.18;;;4.82;;
73434;SDS011;61648;52.094;5.054;2022-11-11T13:52:19;11.70;;;4.40;;
73434;SDS011;61648;52.094;5.054;2022-11-11T13:54:47;12.27;;;4.50;;
73434;SDS011;61648;52.094;5.054;2022-11-11T13:59:41;11.45;;;4.45;;
73434;SDS011;61648;52.094;5.054;2022-11-11T14:02:13;11.80;;;4.50;;
73434;SDS011;61648;52.094;5.054;2022-11-11T14:12:47;9.05;;;4.10;;
73434;SDS011;61648;52.094;5.054;2022-11-11T14:17:58;11.25;;;4.53;;
73434;SDS011;61648;52.094;5.054;2022-11-11T14:20:34;8.75;;;3.85;;
73434;SDS011;61648;52.094;5.054;2022-11-11T14:25:43;8.93;;;3.97;;
73434;SDS011;61648;52.094;5.054;2022-11-11T14:28:19;10.35;;;4.25;;
73434;SDS011;61648;52.094;5.054;2022-11-11T14:30:46;11.38;;;4.10;;
73434;SDS011;61648;52.094;5.054;2022-11-11T14:51:53;10.65;;;3.97;;
73434;SDS011;61648;52.094;5.054;2022-11-11T14:53:59;8.65;;;3.75;;
73434;SDS011;61648;52.094;5.054;2022-11-11T14:56:26;9.52;;;3.72;;
73434;SDS011;61648;52.094;5.054;2022-11-11T14:58:52;9.57;;;3.92;;
73434;SDS011;61648;52.094;5.054;2022-11-11T15:01:18;9.60;;;3.65;;
73434;SDS011;61648;52.094;5.054;2022-11-11T15:03:50;10.32;;;3.88;;
73434;SDS011;61648;52.094;5.054;2022-11-11T15:16:48;8.23;;;3.70;;
73434;SDS011;61648;52.094;5.054;2022-11-11T15:27:34;10.50;;;3.83;;
73434;SDS011;61648;52.094;5.054;2022-11-11T15:30:20;9.77;;;3.95;;
73434;SDS011;61648;52.094;5.054;2022-11-11T15:32:56;10.80;;;3.50;;
73434;SDS011;61648;52.094;5.054;2022-11-11T15:37:51;12.23;;;3.92;;
73434;SDS011;61648;52.094;5.054;2022-11-11T15:40:19;9.10;;;3.83;;
73434;SDS011;61648;52.094;5.054;2022-11-11T15:42:45;8.65;;;4.10;;
73434;SDS011;61648;52.094;5.054;2022-11-11T15:45:19;8.57;;;3.70;;
73434;SDS011;61648;52.094;5.054;2022-11-11T15:47:46;9.23;;;3.92;;
73434;SDS011;61648;52.094;5.054;2022-11-11T15:52:53;10.57;;;3.97;;
73434;SDS011;61648;52.094;5.054;2022-11-11T15:55:20;9.93;;;3.97;;
73434;SDS011;61648;52.094;5.054;2022-11-11T15:57:47;13.13;;;4.50;;
73434;SDS011;61648;52.094;5.054;2022-11-11T16:00:24;11.60;;;4.43;;
73434;SDS011;61648;52.094;5.054;2022-11-11T16:02:51;9.05;;;3.80;;
73434;SDS011;61648;52.094;5.054;2022-11-11T16:05:19;11.77;;;4.03;;
73434;SDS011;61648;52.094;5.054;2022-11-11T16:07:45;12.13;;;4.28;;
73434;SDS011;61648;52.094;5.054;2022-11-11T16:10:13;11.23;;;4.20;;
73434;SDS011;61648;52.094;5.054;2022-11-11T16:12:52;11.05;;;4.10;;
73434;SDS011;61648;52.094;5.054;2022-11-11T16:15:30;10.43;;;4.22;;
73434;SDS011;61648;52.094;5.054;2022-11-11T16:17:59;11.85;;;4.00;;
73434;SDS011;61648;52.094;5.054;2022-11-11T16:20:27;9.30;;;4.00;;
73434;SDS011;61648;52.094;5.054;2022-11-11T16:22:54;10.77;;;3.67;;
73434;SDS011;61648;52.094;5.054;2022-11-11T16:25:22;11.07;;;3.97;;
73434;SDS011;61648;52.094;5.054;2022-11-11T16:27:48;10.43;;;4.32;;
73434;SDS011;61648;52.094;5.054;2022-11-11T16:30:16;10.10;;;3.70;;
73434;SDS011;61648;52.094;5.054;2022-11-11T16:32:42;9.68;;;3.95;;
73434;SDS011;61648;52.094;5.054;2022-11-11T16:35:25;12.25;;;4.30;;
73434;SDS011;61648;52.094;5.054;2022-11-11T16:37:52;10.10;;;3.92;;
73434;SDS011;61648;52.094;5.054;2022-11-11T16:45:44;11.90;;;4.65;;
73434;SDS011;61648;52.094;5.054;2022-11-11T16:48:32;10.13;;;3.97;;
73434;SDS011;61648;52.094;5.054;2022-11-11T16:51:01;11.27;;;4.65;;
73434;SDS011;61648;52.094;5.054;2022-11-11T16:53:29;12.07;;;4.28;;
73434;SDS011;61648;52.094;5.054;2022-11-11T16:55:59;10.80;;;3.97;;
73434;SDS011;61648;52.094;5.054;2022-11-11T16:58:26;10.55;;;3.60;;
73434;SDS011;61648;52.094;5.054;2022-11-11T17:00:58;10.85;;;4.22;;
73434;SDS011;61648;52.094;5.054;2022-11-11T17:03:25;9.32;;;3.90;;
73434;SDS011;61648;52.094;5.054;2022-11-11T17:05:58;10.75;;;3.83;;
73434;SDS011;61648;52.094;5.054;2022-11-11T17:08:33;13.07;;;4.20;;
73434;SDS011;61648;52.094;5.054;2022-11-11T17:10:59;10.77;;;3.88;;
73434;SDS011;61648;52.094;5.054;2022-11-11T17:13:26;11.25;;;3.40;;
73434;SDS011;61648;52.094;5.054;2022-11-11T17:15:56;10.82;;;3.97;;
73434;SDS011;61648;52.094;5.054;2022-11-11T17:18:23;8.40;;;3.60;;
73434;SDS011;61648;52.094;5.054;2022-11-11T17:20:49;11.68;;;4.30;;
73434;SDS011;61648;52.094;5.054;2022-11-11T17:23:15;12.35;;;4.00;;
73434;SDS011;61648;52.094;5.054;2022-11-11T17:25:42;11.10;;;3.88;;
73434;SDS011;61648;52.094;5.054;2022-11-11T17:28:08;10.32;;;3.35;;
73434;SDS011;61648;52.094;5.054;2022-11-11T17:30:34;10.15;;;3.80;;
73434;SDS011;61648;52.094;5.054;2022-11-11T17:33:01;17.33;;;4.43;;
73434;SDS011;61648;52.094;5.054;2022-11-11T17:35:27;21.88;;;9.52;;
73434;SDS011;61648;52.094;5.054;2022-11-11T17:37:53;14.27;;;6.13;;
73434;SDS011;61648;52.094;5.054;2022-11-11T17:40:19;16.58;;;6.32;;
73434;SDS011;61648;52.094;5.054;2022-11-11T17:42:45;15.45;;;6.13;;
73434;SDS011;61648;52.094;5.054;2022-11-11T17:45:11;15.50;;;6.35;;